createdAt,value
2019-04-20T00:01:37.251Z,10.90
2019-04-20T00:04:05.385Z,10.80
2019-04-20T00:06:39.831Z,10.70
2019-04-20T00:09:07.400Z,10.70
2019-04-20T00:11:41.488Z,10.90
2019-04-20T00:14:05.777Z,10.90
2019-04-20T00:16:27.233Z,10.90
2019-04-20T00:18:58.540Z,10.70
2019-04-20T00:21:42.753Z,10.60
2019-04-20T00:24:16.491Z,10.40
2019-04-20T00:29:24.873Z,10.50
2019-04-20T00:31:50.317Z,10.40
2019-04-20T00:34:14.997Z,10.40
2019-04-20T00:36:34.892Z,10.30
2019-04-20T00:39:05.951Z,10.30
2019-04-20T00:41:35.099Z,10.40
2019-04-20T00:44:06.103Z,10.40
2019-04-20T00:46:33.973Z,10.30
2019-04-20T00:49:10.358Z,10.30
2019-04-20T00:51:39.227Z,10.30
2019-04-20T00:53:55.867Z,10.40
2019-04-20T00:56:22.348Z,10.30
2019-04-20T00:59:03.042Z,10.30
2019-04-20T01:01:37.831Z,10.30
2019-04-20T01:04:06.709Z,10.20
2019-04-20T01:06:46.677Z,10.20
2019-04-20T01:09:09.941Z,10.20
2019-04-20T01:11:40.443Z,10.20
2019-04-20T01:14:09.354Z,10.30
2019-04-20T01:16:41.974Z,10.30
2019-04-20T01:19:02.234Z,10.30
2019-04-20T01:21:31.792Z,10.20
2019-04-20T01:24:01.864Z,10.20
2019-04-20T01:26:27.375Z,10.10
2019-04-20T01:29:08.935Z,10.00
2019-04-20T01:31:32.205Z,10.00
2019-04-20T01:34:00.667Z,9.90
2019-04-20T01:36:42.974Z,9.80
2019-04-20T01:39:02.746Z,9.80
2019-04-20T01:41:18.262Z,9.90
2019-04-20T01:43:46.159Z,9.90
2019-04-20T01:46:17.128Z,9.80
2019-04-20T01:48:43.422Z,9.60
2019-04-20T01:51:17.302Z,9.60
2019-04-20T01:54:03.973Z,9.50
2019-04-20T01:56:27.901Z,9.60
2019-04-20T01:59:20.008Z,9.50
2019-04-20T02:01:56.990Z,9.50
2019-04-20T02:04:30.147Z,9.60
2019-04-20T02:06:56.889Z,9.40
2019-04-20T02:09:24.642Z,9.30
2019-04-20T02:11:51.845Z,9.30
2019-04-20T02:14:24.256Z,9.30
2019-04-20T02:16:51.715Z,9.10
2019-04-20T02:19:30.480Z,9.20
2019-04-20T02:21:59.147Z,9.20
2019-04-20T02:24:13.161Z,9.20
2019-04-20T02:26:41.022Z,9.30
2019-04-20T02:29:30.510Z,9.30
2019-04-20T02:35:02.772Z,9.30
2019-04-20T02:40:10.762Z,9.30
2019-04-20T02:42:34.651Z,9.40
2019-04-20T02:45:08.974Z,9.30
2019-04-20T02:47:30.647Z,9.20
2019-04-20T02:50:16.933Z,9.00
2019-04-20T02:52:28.664Z,9.00
2019-04-20T02:55:02.029Z,9.00
2019-04-20T03:02:06.429Z,8.90
2019-04-20T03:04:29.022Z,8.90
2019-04-20T03:07:03.889Z,8.80
2019-04-20T03:09:36.913Z,8.60
2019-04-20T03:12:23.375Z,8.70
2019-04-20T03:14:26.838Z,8.60
2019-04-20T03:17:03.257Z,8.60
2019-04-20T03:19:23.659Z,8.60
2019-04-20T03:22:05.162Z,8.60
2019-04-20T03:24:31.058Z,8.50
2019-04-20T03:27:01.570Z,8.30
2019-04-20T03:29:56.619Z,8.40
2019-04-20T03:37:27.007Z,8.30
2019-04-20T03:39:46.658Z,8.40
2019-04-20T03:42:00.927Z,8.40
2019-04-20T03:44:31.198Z,8.50
2019-04-20T03:47:01.316Z,8.40
2019-04-20T03:49:48.323Z,8.30
2019-04-20T03:52:34.284Z,8.20
2019-04-20T03:55:34.219Z,8.30
2019-04-20T03:58:08.625Z,8.20
2019-04-20T04:00:50.384Z,8.10
2019-04-20T04:03:47.303Z,8.20
2019-04-20T04:06:10.516Z,8.20
2019-04-20T04:08:35.370Z,8.10
2019-04-20T04:11:16.209Z,8.10
2019-04-20T04:13:24.835Z,7.90
2019-04-20T04:15:57.535Z,8.00
2019-04-20T04:18:27.761Z,8.00
2019-04-20T04:20:54.086Z,8.10
2019-04-20T04:23:35.604Z,8.20
2019-04-20T04:26:05.757Z,8.20
2019-04-20T04:28:35.130Z,8.10
2019-04-20T04:31:03.622Z,8.00
2019-04-20T04:35:56.627Z,7.90
2019-04-20T04:38:36.289Z,7.80
2019-04-20T04:41:09.906Z,7.80
2019-04-20T04:43:30.382Z,7.90
2019-04-20T04:45:36.963Z,7.80
2019-04-20T04:48:07.596Z,7.80
2019-04-20T04:50:37.329Z,7.80
2019-04-20T04:53:09.333Z,7.80
2019-04-20T04:55:39.485Z,8.10
2019-04-20T04:57:58.209Z,8.20
2019-04-20T05:00:29.841Z,8.30
2019-04-20T05:03:00.935Z,8.40
2019-04-20T05:06:21.050Z,8.50
2019-04-20T05:08:36.041Z,8.50
2019-04-20T05:10:58.195Z,8.50
2019-04-20T05:13:27.655Z,8.50
2019-04-20T05:16:07.523Z,8.70
2019-04-20T05:18:45.095Z,8.80
2019-04-20T05:21:15.347Z,8.90
2019-04-20T05:23:48.001Z,9.00
2019-04-20T05:26:34.507Z,9.10
2019-04-20T05:28:52.720Z,9.30
2019-04-20T05:31:13.067Z,9.40
2019-04-20T05:34:02.318Z,9.40
2019-04-20T05:36:29.642Z,9.60
2019-04-20T05:39:05.223Z,9.80
2019-04-20T05:41:24.107Z,10.00
2019-04-20T05:43:59.827Z,9.90
2019-04-20T05:46:35.347Z,10.00
2019-04-20T05:49:02.599Z,10.00
2019-04-20T05:51:29.541Z,10.00
2019-04-20T05:54:00.874Z,10.30
2019-04-20T05:56:32.300Z,10.30
2019-04-20T05:58:56.613Z,10.30
2019-04-20T06:01:29.467Z,10.60
2019-04-20T06:03:52.801Z,10.70
2019-04-20T06:06:25.970Z,10.90
2019-04-20T06:08:58.019Z,11.30
2019-04-20T06:11:24.139Z,11.40
2019-04-20T06:13:56.875Z,11.70
2019-04-20T06:16:40.391Z,12.10
2019-04-20T06:19:18.240Z,12.70
2019-04-20T06:21:53.048Z,13.30
2019-04-20T06:24:33.258Z,13.60
2019-04-20T06:27:00.975Z,14.80
2019-04-20T06:29:22.545Z,15.60
2019-04-20T06:31:53.143Z,16.20
2019-04-20T06:34:33.131Z,16.90
2019-04-20T06:37:06.751Z,17.00
2019-04-20T06:39:36.012Z,16.70
2019-04-20T06:47:06.744Z,18.20
2019-04-20T06:49:29.199Z,18.40
2019-04-20T06:52:21.651Z,18.10
2019-04-20T06:55:06.937Z,18.60
2019-04-20T06:57:40.694Z,18.10
2019-04-20T07:00:14.697Z,18.40
2019-04-20T07:02:50.065Z,19.20
2019-04-20T07:05:05.639Z,19.40
2019-04-20T07:07:29.793Z,19.40
2019-04-20T07:10:08.603Z,19.90
2019-04-20T07:12:27.314Z,20.60
2019-04-20T07:14:46.888Z,20.70
2019-04-20T07:20:12.840Z,21.20
2019-04-20T07:23:09.462Z,20.90
2019-04-20T07:25:20.979Z,20.10
2019-04-20T07:27:52.132Z,20.50
2019-04-20T07:30:19.462Z,22.00
2019-04-20T07:32:52.545Z,22.70
2019-04-20T07:35:21.680Z,21.90
2019-04-20T07:40:20.304Z,23.30
2019-04-20T07:42:53.837Z,23.50
2019-04-20T07:45:26.752Z,23.00
2019-04-20T07:48:07.418Z,23.20
2019-04-20T07:50:12.963Z,23.80
2019-04-20T07:52:38.709Z,23.20
2019-04-20T07:57:40.515Z,23.10
2019-04-20T08:00:08.100Z,23.40
2019-04-20T08:03:03.611Z,23.40
2019-04-20T08:05:30.509Z,23.60
2019-04-20T08:08:02.540Z,24.20
2019-04-20T08:10:33.664Z,24.80
2019-04-20T08:13:16.796Z,24.60
2019-04-20T08:18:08.928Z,25.10
2019-04-20T08:20:35.520Z,24.00
2019-04-20T08:23:05.085Z,24.20
2019-04-20T08:25:26.884Z,25.50
2019-04-20T08:28:21.352Z,25.30
2019-04-20T08:31:21.733Z,26.30
2019-04-20T08:34:06.495Z,26.70
2019-04-20T08:36:27.210Z,26.20
2019-04-20T08:41:18.210Z,26.20
2019-04-20T08:43:57.241Z,26.20
2019-04-20T08:46:23.460Z,26.40
2019-04-20T08:48:46.745Z,26.20
2019-04-20T08:51:14.257Z,26.30
2019-04-20T08:53:45.091Z,26.10
2019-04-20T08:56:05.864Z,27.00
2019-04-20T08:58:21.002Z,27.10
2019-04-20T09:00:53.693Z,27.40
2019-04-20T09:03:22.803Z,27.20
2019-04-20T09:05:56.602Z,27.30
2019-04-20T09:08:21.263Z,27.60
2019-04-20T09:11:00.260Z,27.30
2019-04-20T09:13:21.122Z,28.10
2019-04-20T09:15:40.760Z,27.80
2019-04-20T09:18:21.449Z,28.10
2019-04-20T09:20:50.614Z,28.60
2019-04-20T09:23:26.498Z,29.00
2019-04-20T09:26:02.359Z,29.10
2019-04-20T09:28:23.833Z,28.40
2019-04-20T09:30:53.231Z,28.60
2019-04-20T09:34:09.151Z,28.70
2019-04-20T09:36:40.552Z,27.50
2019-04-20T09:39:15.060Z,27.80
2019-04-20T09:41:58.536Z,27.40
2019-04-20T09:44:09.106Z,27.80
2019-04-20T09:46:40.010Z,27.60
2019-04-20T09:49:15.666Z,28.00
2019-04-20T09:51:54.127Z,27.60
2019-04-20T09:54:18.601Z,27.80
2019-04-20T09:56:52.259Z,28.90
2019-04-20T09:59:16.868Z,29.00
2019-04-20T10:01:36.499Z,28.80
2019-04-20T10:03:57.088Z,28.90
2019-04-20T10:06:27.289Z,29.80
2019-04-20T10:08:56.262Z,30.50
2019-04-20T10:11:21.438Z,30.00
2019-04-20T10:13:48.325Z,30.60
2019-04-20T10:16:15.643Z,30.90
2019-04-20T10:18:47.187Z,30.50
2019-04-20T10:21:11.771Z,30.60
2019-04-20T10:23:38.759Z,30.50
2019-04-20T10:26:06.741Z,30.80
2019-04-20T10:28:33.875Z,30.80
2019-04-20T10:31:00.651Z,30.60
2019-04-20T10:33:27.847Z,30.50
2019-04-20T10:35:54.724Z,30.00
2019-04-20T10:38:25.607Z,30.50
2019-04-20T10:41:03.370Z,30.10
2019-04-20T10:43:21.886Z,30.40
2019-04-20T10:45:48.922Z,31.30
2019-04-20T10:48:15.639Z,31.90
2019-04-20T10:50:45.434Z,31.90
2019-04-20T10:53:12.169Z,32.00
2019-04-20T10:55:39.733Z,31.10
2019-04-20T10:58:07.332Z,31.30
2019-04-20T11:00:39.753Z,32.00
2019-04-20T11:03:08.104Z,31.90
2019-04-20T11:05:36.186Z,31.40
2019-04-20T11:08:04.350Z,31.30
2019-04-20T11:10:46.787Z,31.50
2019-04-20T11:13:01.232Z,31.80
2019-04-20T11:15:28.397Z,31.30
2019-04-20T11:17:55.360Z,30.50
2019-04-20T11:20:23.426Z,30.40
2019-04-20T11:22:50.552Z,31.40
2019-04-20T11:25:17.620Z,31.50
2019-04-20T11:27:46.133Z,31.20
2019-04-20T11:30:14.117Z,31.80
2019-04-20T11:32:44.310Z,32.20
2019-04-20T11:35:22.164Z,31.30
2019-04-20T11:37:41.149Z,30.80
2019-04-20T11:40:09.030Z,31.70
2019-04-20T11:42:35.772Z,31.50
2019-04-20T11:45:04.575Z,31.00
2019-04-20T11:47:31.852Z,31.40
2019-04-20T11:50:02.154Z,31.10
2019-04-20T11:52:31.966Z,31.10
2019-04-20T11:54:58.125Z,31.70
2019-04-20T11:57:25.344Z,31.40
2019-04-20T11:59:52.994Z,32.70
2019-04-20T12:02:44.738Z,33.10
2019-04-20T12:05:23.947Z,33.40
2019-04-20T12:07:55.472Z,32.30
2019-04-20T12:10:24.173Z,32.60
2019-04-20T12:12:54.193Z,32.30
2019-04-20T12:15:19.904Z,31.90
2019-04-20T12:17:47.330Z,32.60
2019-04-20T12:20:16.698Z,32.90
2019-04-20T12:22:44.266Z,32.70
2019-04-20T12:25:12.072Z,31.60
2019-04-20T12:27:42.023Z,31.00
2019-04-20T12:30:10.024Z,32.10
2019-04-20T12:32:42.931Z,32.30
2019-04-20T12:35:06.523Z,32.20
2019-04-20T12:37:34.278Z,32.30
2019-04-20T12:40:01.003Z,31.50
2019-04-20T12:42:28.753Z,31.20
2019-04-20T12:44:55.743Z,31.50
2019-04-20T12:47:23.692Z,31.40
2019-04-20T12:49:51.640Z,31.40
2019-04-20T12:52:18.651Z,31.60
2019-04-20T12:54:46.668Z,31.50
2019-04-20T12:57:14.491Z,31.50
2019-04-20T12:59:44.395Z,31.20
2019-04-20T13:02:11.350Z,30.70
2019-04-20T13:04:39.420Z,30.20
2019-04-20T13:07:07.841Z,30.10
2019-04-20T13:09:44.296Z,29.90
2019-04-20T13:12:42.783Z,30.70
2019-04-20T13:15:44.519Z,31.20
2019-04-20T13:18:12.283Z,31.20
2019-04-20T13:20:39.721Z,30.60
2019-04-20T13:23:07.547Z,29.90
2019-04-20T13:25:37.046Z,29.50
2019-04-20T13:28:05.111Z,30.00
2019-04-20T13:30:32.671Z,29.90
2019-04-20T13:32:59.455Z,30.20
2019-04-20T13:35:27.825Z,30.00
2019-04-20T13:37:56.167Z,29.40
2019-04-20T13:40:23.823Z,28.90
2019-04-20T13:42:51.900Z,29.70
2019-04-20T13:45:19.204Z,28.60
2019-04-20T13:47:46.094Z,28.10
2019-04-20T13:50:14.467Z,28.70
2019-04-20T13:52:42.664Z,29.10
2019-04-20T13:55:10.813Z,29.10
2019-04-20T13:57:44.010Z,28.90
2019-04-20T14:00:33.868Z,29.10
2019-04-20T14:03:04.846Z,29.20
2019-04-20T14:05:33.066Z,29.70
2019-04-20T14:08:05.245Z,28.90
2019-04-20T14:10:33.405Z,28.00
2019-04-20T14:13:07.532Z,27.80
2019-04-20T14:15:29.298Z,27.90
2019-04-20T14:17:57.181Z,28.10
2019-04-20T14:20:29.965Z,28.90
2019-04-20T14:22:56.965Z,29.10
2019-04-20T14:25:24.824Z,29.90
2019-04-20T14:27:52.934Z,29.80
2019-04-20T14:30:21.152Z,29.40
2019-04-20T14:32:48.992Z,29.50
2019-04-20T14:35:16.727Z,29.00
2019-04-20T14:37:43.831Z,28.80
2019-04-20T14:40:12.510Z,28.60
2019-04-20T14:42:46.381Z,29.10
2019-04-20T14:45:08.990Z,29.30
2019-04-20T14:47:36.277Z,28.70
2019-04-20T14:50:03.904Z,28.90
2019-04-20T14:52:31.451Z,28.60
2019-04-20T14:54:59.534Z,28.10
2019-04-20T14:57:27.632Z,27.00
2019-04-20T14:59:59.139Z,26.70
2019-04-20T15:02:28.502Z,26.30
2019-04-20T15:04:55.377Z,26.40
2019-04-20T15:07:22.618Z,26.20
2019-04-20T15:09:50.908Z,26.70
2019-04-20T15:12:18.967Z,26.60
2019-04-20T15:14:46.853Z,26.30
2019-04-20T15:17:19.419Z,26.20
2019-04-20T15:19:57.120Z,26.20
2019-04-20T15:22:33.786Z,25.80
2019-04-20T15:25:00.812Z,26.00
2019-04-20T15:27:28.142Z,26.30
2019-04-20T15:29:56.109Z,26.00
2019-04-20T15:32:22.997Z,26.10
2019-04-20T15:34:50.871Z,26.00
2019-04-20T15:37:18.236Z,26.10
2019-04-20T15:39:45.286Z,25.80
2019-04-20T15:42:12.297Z,25.40
2019-04-20T15:44:39.701Z,24.70
2019-04-20T15:47:07.047Z,24.30
2019-04-20T15:49:34.189Z,23.80
2019-04-20T15:52:01.785Z,23.20
2019-04-20T15:54:29.609Z,22.70
2019-04-20T15:57:01.812Z,22.60
2019-04-20T15:59:26.406Z,22.60
2019-04-20T16:01:57.748Z,22.50
2019-04-20T16:04:44.621Z,22.30
2019-04-20T16:07:12.982Z,22.20
2019-04-20T16:09:40.001Z,22.00
2019-04-20T16:12:06.942Z,21.90
2019-04-20T16:14:35.391Z,21.70
2019-04-20T16:17:04.039Z,21.60
2019-04-20T16:19:40.733Z,21.30
2019-04-20T16:22:01.573Z,21.20
2019-04-20T16:24:32.963Z,21.20
2019-04-20T16:27:27.545Z,21.10
2019-04-20T16:29:55.743Z,21.10
2019-04-20T16:32:22.791Z,21.00
2019-04-20T16:34:50.604Z,21.00
2019-04-20T16:37:17.646Z,20.90
2019-04-20T16:39:44.260Z,20.80
2019-04-20T16:42:13.830Z,20.80
2019-04-20T16:44:41.111Z,20.80
2019-04-20T16:47:08.232Z,20.70
2019-04-20T16:49:34.933Z,20.60
2019-04-20T16:52:02.820Z,20.50
2019-04-20T16:54:30.234Z,20.40
2019-04-20T16:56:56.975Z,20.30
2019-04-20T16:59:24.765Z,20.20
2019-04-20T17:01:51.574Z,20.20
2019-04-20T17:04:22.253Z,20.10
2019-04-20T17:07:10.310Z,20.00
2019-04-20T17:09:37.945Z,19.90
2019-04-20T17:12:05.870Z,19.80
2019-04-20T17:14:33.678Z,19.70
2019-04-20T17:17:01.747Z,19.60
2019-04-20T17:19:29.588Z,19.50
2019-04-20T17:21:57.252Z,19.40
2019-04-20T17:24:25.102Z,19.30
2019-04-20T17:27:05.314Z,19.20
2019-04-20T17:29:36.706Z,19.20
2019-04-20T17:32:11.726Z,19.10
2019-04-20T17:34:57.271Z,19.00
2019-04-20T17:37:08.711Z,19.00
2019-04-20T17:39:45.586Z,18.90
2019-04-20T17:42:21.007Z,18.80
2019-04-20T17:44:47.273Z,18.70
2019-04-20T17:47:21.657Z,18.60
2019-04-20T17:49:42.547Z,18.50
2019-04-20T17:52:24.061Z,18.50
2019-04-20T17:54:35.494Z,18.40
2019-04-20T17:57:04.463Z,18.30
2019-04-20T17:59:32.439Z,18.30
2019-04-20T18:02:32.828Z,18.20
2019-04-20T18:05:15.679Z,18.10
2019-04-20T18:07:44.019Z,18.00
2019-04-20T18:10:08.168Z,17.90
2019-04-20T18:12:26.829Z,17.80
2019-04-20T18:14:58.108Z,17.80
2019-04-20T18:17:45.405Z,17.70
2019-04-20T18:20:05.243Z,17.60
2019-04-20T18:22:34.153Z,17.50
2019-04-20T18:25:20.882Z,17.40
2019-04-20T18:27:45.522Z,17.40
2019-04-20T18:30:15.715Z,17.30
2019-04-20T18:32:37.645Z,17.20
2019-04-20T18:35:14.356Z,17.10
2019-04-20T18:37:44.192Z,17.00
2019-04-20T18:40:14.543Z,17.00
2019-04-20T18:42:43.650Z,16.80
2019-04-20T18:45:27.051Z,16.80
2019-04-20T18:47:55.889Z,16.70
2019-04-20T18:50:14.089Z,16.50
2019-04-20T18:52:36.171Z,16.30
2019-04-20T18:55:07.430Z,16.30
2019-04-20T18:57:33.221Z,16.20
2019-04-20T19:00:02.827Z,16.20
2019-04-20T19:02:33.435Z,16.10
2019-04-20T19:05:01.567Z,16.10
2019-04-20T19:07:27.969Z,16.10
2019-04-20T19:10:04.342Z,16.20
2019-04-20T19:12:34.493Z,16.10
2019-04-20T19:15:19.739Z,16.10
2019-04-20T19:18:12.695Z,16.00
2019-04-20T19:20:43.203Z,16.00
2019-04-20T19:23:10.314Z,15.90
2019-04-20T19:25:40.603Z,15.90
2019-04-20T19:28:07.078Z,15.80
2019-04-20T19:30:44.581Z,15.70
2019-04-20T19:33:19.010Z,15.70
2019-04-20T19:35:41.746Z,15.60
2019-04-20T19:38:09.628Z,15.50
2019-04-20T19:40:42.951Z,15.50
2019-04-20T19:43:08.573Z,15.40
2019-04-20T19:45:46.613Z,15.30
2019-04-20T19:48:11.891Z,15.30
2019-04-20T19:50:52.930Z,15.30
2019-04-20T19:53:18.381Z,15.30
2019-04-20T19:55:39.710Z,15.30
2019-04-20T19:58:02.996Z,15.20
2019-04-20T20:00:38.936Z,15.10
2019-04-20T20:03:05.888Z,15.10
2019-04-20T20:05:37.970Z,15.10
2019-04-20T20:08:06.444Z,15.10
2019-04-20T20:10:34.457Z,15.10
2019-04-20T20:13:01.160Z,15.00
2019-04-20T20:15:32.699Z,14.80
2019-04-20T20:18:15.502Z,14.70
2019-04-20T20:20:42.903Z,14.70
2019-04-20T20:22:56.369Z,14.80
2019-04-20T20:25:23.511Z,14.80
2019-04-20T20:27:56.075Z,14.70
2019-04-20T20:30:27.800Z,14.60
2019-04-20T20:33:04.872Z,14.60
2019-04-20T20:35:23.649Z,14.60
2019-04-20T20:37:50.143Z,14.50
2019-04-20T20:40:23.258Z,14.40
2019-04-20T20:42:56.237Z,14.40
2019-04-20T20:45:22.961Z,14.40
2019-04-20T20:48:04.889Z,14.40
2019-04-20T20:52:57.589Z,14.30
2019-04-20T20:55:20.981Z,14.20
2019-04-20T20:57:52.059Z,14.20
2019-04-20T21:00:25.194Z,14.20
2019-04-20T21:02:47.193Z,14.10
2019-04-20T21:05:07.076Z,14.10
2019-04-20T21:07:34.434Z,14.00
2019-04-20T21:10:01.263Z,14.00
2019-04-20T21:12:28.825Z,14.00
2019-04-20T21:15:00.383Z,14.00
2019-04-20T21:17:32.035Z,13.90
2019-04-20T21:20:08.860Z,13.80
2019-04-20T21:22:43.792Z,13.70
2019-04-20T21:24:52.985Z,13.70
2019-04-20T21:27:22.119Z,13.60
2019-04-20T21:29:52.504Z,13.60
2019-04-20T21:32:19.756Z,13.60
2019-04-20T21:34:51.811Z,13.50
2019-04-20T21:37:17.495Z,13.50
2019-04-20T21:39:50.034Z,13.50
2019-04-20T21:42:15.921Z,13.50
2019-04-20T21:44:42.922Z,13.50
2019-04-20T21:47:09.182Z,13.50
2019-04-20T21:49:45.739Z,13.50
2019-04-20T21:52:14.926Z,13.40
2019-04-20T21:54:34.151Z,13.30
2019-04-20T21:57:03.941Z,13.20
2019-04-20T21:59:36.309Z,13.20
2019-04-20T22:02:06.557Z,13.10
2019-04-20T22:04:29.068Z,13.10
2019-04-20T22:06:56.200Z,13.00
2019-04-20T22:09:25.139Z,13.00
2019-04-20T22:11:51.915Z,13.00
2019-04-20T22:14:24.011Z,12.90
2019-04-20T22:16:51.649Z,12.80
2019-04-20T22:19:33.198Z,12.80
2019-04-20T22:22:00.619Z,12.70
2019-04-20T22:24:33.114Z,12.60
2019-04-20T22:26:58.904Z,12.60
2019-04-20T22:29:16.221Z,12.50
2019-04-20T22:31:46.158Z,12.40
2019-04-20T22:34:17.419Z,12.50
2019-04-20T22:36:46.418Z,12.30
2019-04-20T22:39:15.517Z,12.40
2019-04-20T22:41:53.513Z,12.30
2019-04-20T22:44:20.741Z,12.40
2019-04-20T22:46:46.178Z,12.30
2019-04-20T22:49:33.381Z,12.30
2019-04-20T22:51:53.203Z,12.20
2019-04-20T22:54:28.063Z,12.30
2019-04-20T22:56:49.965Z,12.20
2019-04-20T22:59:15.710Z,12.20
2019-04-20T23:01:44.447Z,12.10
2019-04-20T23:04:06.508Z,12.10
2019-04-20T23:06:37.352Z,12.10
2019-04-20T23:09:04.834Z,12.10
2019-04-20T23:11:33.514Z,12.00
2019-04-20T23:14:00.459Z,11.90
2019-04-20T23:16:36.826Z,11.90
2019-04-20T23:18:56.179Z,11.90
2019-04-20T23:21:23.899Z,11.90
2019-04-20T23:23:54.669Z,11.90
2019-04-20T23:26:27.907Z,11.80
2019-04-20T23:28:51.829Z,11.80
2019-04-20T23:31:20.253Z,11.90
2019-04-20T23:33:45.712Z,11.70
2019-04-20T23:36:12.931Z,11.70
2019-04-20T23:38:44.324Z,11.70
2019-04-20T23:41:08.090Z,11.80
2019-04-20T23:43:45.265Z,11.80
2019-04-20T23:46:30.131Z,11.80
2019-04-20T23:49:23.232Z,11.80
2019-04-20T23:52:03.729Z,11.70
2019-04-20T23:54:18.332Z,11.60
2019-04-20T23:56:41.671Z,11.50
2019-04-20T23:59:10.560Z,11.50
